createdAt,value
2023-05-02T00:00:00.653Z,1.50
2023-05-02T00:01:06.291Z,1.40
2023-05-02T00:02:10.411Z,1.30
2023-05-02T00:03:14.220Z,1.20
2023-05-02T00:04:18.244Z,1.38
2023-05-02T00:05:21.788Z,1.73
2023-05-02T00:06:25.216Z,1.17
2023-05-02T00:07:29.752Z,1.30
2023-05-02T00:08:33.411Z,1.45
2023-05-02T00:09:36.807Z,1.48
2023-05-02T00:10:40.921Z,1.45
2023-05-02T00:11:45.119Z,1.27
2023-05-02T00:12:48.577Z,1.30
2023-05-02T00:13:52.386Z,1.30
2023-05-02T00:14:56.218Z,1.05
2023-05-02T00:15:59.775Z,1.70
2023-05-02T00:17:03.548Z,1.10
2023-05-02T00:18:07.311Z,1.35
2023-05-02T00:19:10.937Z,1.30
2023-05-02T00:20:14.468Z,1.33
2023-05-02T00:21:17.993Z,1.30
2023-05-02T00:22:21.584Z,1.20
2023-05-02T00:23:25.380Z,1.35
2023-05-02T00:24:28.945Z,1.17
2023-05-02T00:25:32.277Z,1.30
2023-05-02T00:26:35.518Z,1.63
2023-05-02T00:27:39.074Z,1.65
2023-05-02T00:28:43.089Z,1.20
2023-05-02T00:29:48.503Z,1.42
2023-05-02T00:30:52.325Z,1.52
2023-05-02T00:31:56.094Z,1.15
2023-05-02T00:32:59.899Z,1.23
2023-05-02T00:34:03.340Z,1.50
2023-05-02T00:35:07.860Z,1.35
2023-05-02T00:36:17.870Z,0.88
2023-05-02T00:37:21.700Z,1.33
2023-05-02T00:38:24.846Z,1.83
2023-05-02T00:39:28.809Z,1.63
2023-05-02T00:40:32.306Z,1.52
2023-05-02T00:41:35.955Z,1.70
2023-05-02T00:42:39.552Z,1.85
2023-05-02T00:43:43.302Z,1.58
2023-05-02T00:44:47.536Z,1.20
2023-05-02T00:45:51.259Z,1.77
2023-05-02T00:46:56.386Z,1.52
2023-05-02T00:48:00.616Z,1.40
2023-05-02T00:49:04.207Z,1.13
2023-05-02T00:50:08.489Z,1.20
2023-05-02T00:51:13.930Z,1.40
2023-05-02T00:52:17.300Z,1.30
2023-05-02T00:53:20.946Z,1.40
2023-05-02T00:54:24.532Z,1.77
2023-05-02T00:55:27.803Z,2.00
2023-05-02T00:56:31.243Z,1.55
2023-05-02T00:57:34.530Z,1.90
2023-05-02T00:58:41.837Z,1.70
2023-05-02T00:59:45.588Z,1.50
2023-05-02T01:01:26.213Z,1.52
2023-05-02T01:02:50.260Z,1.70
2023-05-02T01:04:05.422Z,1.50
2023-05-02T01:05:16.459Z,1.58
2023-05-02T01:06:48.059Z,1.40
2023-05-02T01:08:10.724Z,1.13
2023-05-02T01:09:51.215Z,1.30
2023-05-02T01:11:05.976Z,2.10
2023-05-02T01:12:20.928Z,1.58
2023-05-02T01:13:34.832Z,1.50
2023-05-02T01:14:43.081Z,1.20
2023-05-02T01:15:46.707Z,1.63
2023-05-02T01:16:51.031Z,1.55
2023-05-02T01:17:55.554Z,1.30
2023-05-02T01:18:59.414Z,1.40
2023-05-02T01:20:14.854Z,1.50
2023-05-02T01:21:18.400Z,1.70
2023-05-02T01:22:21.799Z,1.40
2023-05-02T01:23:34.665Z,1.20
2023-05-02T01:25:03.361Z,1.40
2023-05-02T01:26:49.616Z,2.05
2023-05-02T01:27:59.576Z,1.20
2023-05-02T01:29:07.130Z,1.60
2023-05-02T01:30:11.441Z,1.02
2023-05-02T01:31:14.855Z,1.17
2023-05-02T01:32:18.708Z,1.10
2023-05-02T01:33:22.039Z,1.35
2023-05-02T01:34:26.221Z,1.42
2023-05-02T01:35:29.574Z,1.50
2023-05-02T01:36:33.184Z,1.52
2023-05-02T01:37:37.693Z,1.30
2023-05-02T01:38:41.443Z,1.88
2023-05-02T01:39:44.975Z,2.05
2023-05-02T01:40:48.336Z,1.30
2023-05-02T01:41:52.998Z,1.60
2023-05-02T01:42:56.257Z,1.45
2023-05-02T01:44:00.587Z,1.20
2023-05-02T01:45:04.920Z,1.48
2023-05-02T01:46:08.532Z,1.25
2023-05-02T01:47:12.281Z,1.42
2023-05-02T01:48:16.765Z,1.60
2023-05-02T01:49:20.722Z,1.30
2023-05-02T01:50:25.467Z,1.42
2023-05-02T01:51:32.434Z,1.45
2023-05-02T01:52:36.265Z,1.10
2023-05-02T01:53:39.636Z,1.50
2023-05-02T01:54:43.051Z,1.25
2023-05-02T01:55:46.774Z,1.38
2023-05-02T01:56:50.454Z,1.38
2023-05-02T01:57:54.723Z,1.50
2023-05-02T01:58:58.174Z,1.35
2023-05-02T02:00:02.457Z,1.23
2023-05-02T02:01:28.463Z,1.50
2023-05-02T02:02:32.180Z,1.40
2023-05-02T02:03:36.033Z,1.40
2023-05-02T02:04:39.867Z,1.60
2023-05-02T02:05:46.388Z,1.10
2023-05-02T02:06:53.678Z,1.90
2023-05-02T02:07:57.445Z,1.40
2023-05-02T02:09:01.294Z,2.00
2023-05-02T02:10:05.359Z,1.38
2023-05-02T02:11:11.689Z,1.67
2023-05-02T02:12:50.019Z,1.40
2023-05-02T02:13:56.630Z,2.00
2023-05-02T02:15:18.451Z,1.90
2023-05-02T02:16:26.356Z,1.70
2023-05-02T02:17:44.390Z,1.58
2023-05-02T02:18:47.908Z,2.03
2023-05-02T02:19:51.668Z,1.50
2023-05-02T02:20:55.796Z,2.03
2023-05-02T02:22:00.135Z,1.92
2023-05-02T02:23:05.919Z,1.70
2023-05-02T02:24:09.204Z,2.03
2023-05-02T02:25:13.776Z,1.98
2023-05-02T02:26:20.185Z,1.38
2023-05-02T02:27:24.088Z,1.40
2023-05-02T02:28:27.573Z,1.30
2023-05-02T02:29:32.335Z,1.33
2023-05-02T02:30:36.364Z,1.15
2023-05-02T02:31:41.094Z,1.45
2023-05-02T02:32:44.861Z,1.30
2023-05-02T02:33:48.676Z,1.45
2023-05-02T02:34:52.047Z,1.50
2023-05-02T02:36:28.927Z,1.50
2023-05-02T02:37:40.382Z,1.15
2023-05-02T02:39:10.822Z,1.55
2023-05-02T02:40:35.377Z,1.73
2023-05-02T02:42:08.961Z,1.10
2023-05-02T02:43:21.048Z,1.20
2023-05-02T02:44:46.736Z,1.40
2023-05-02T02:46:22.697Z,1.27
2023-05-02T02:47:38.290Z,1.60
2023-05-02T02:48:57.149Z,1.80
2023-05-02T02:50:11.270Z,1.70
2023-05-02T02:51:16.638Z,1.77
2023-05-02T02:52:23.948Z,1.83
2023-05-02T02:53:48.075Z,1.77
2023-05-02T02:55:00.539Z,1.58
2023-05-02T02:56:06.907Z,1.42
2023-05-02T02:57:26.562Z,2.03
2023-05-02T02:58:41.220Z,1.93
2023-05-02T03:00:09.820Z,2.05
2023-05-02T03:01:17.086Z,2.10
2023-05-02T03:02:20.777Z,1.83
2023-05-02T03:03:26.081Z,2.30
2023-05-02T03:04:32.053Z,2.47
2023-05-02T03:05:35.703Z,2.13
2023-05-02T03:06:38.893Z,2.05
2023-05-02T03:07:42.592Z,2.40
2023-05-02T03:08:46.411Z,2.25
2023-05-02T03:09:54.997Z,2.33
2023-05-02T03:11:00.872Z,1.88
2023-05-02T03:12:05.261Z,2.08
2023-05-02T03:13:10.630Z,2.60
2023-05-02T03:14:16.124Z,3.00
2023-05-02T03:15:51.324Z,2.42
2023-05-02T03:16:59.394Z,2.15
2023-05-02T03:18:03.674Z,2.50
2023-05-02T03:19:07.815Z,2.40
2023-05-02T03:20:11.842Z,2.20
2023-05-02T03:21:15.714Z,2.20
2023-05-02T03:22:20.272Z,2.00
2023-05-02T03:23:23.724Z,1.90
2023-05-02T03:24:29.458Z,2.53
2023-05-02T03:25:33.526Z,2.30
2023-05-02T03:26:37.658Z,2.13
2023-05-02T03:27:44.333Z,2.45
2023-05-02T03:28:51.503Z,3.05
2023-05-02T03:30:01.053Z,2.53
2023-05-02T03:31:07.456Z,1.77
2023-05-02T03:32:14.989Z,2.00
2023-05-02T03:33:20.953Z,2.60
2023-05-02T03:34:24.580Z,2.10
2023-05-02T03:35:29.203Z,1.80
2023-05-02T03:36:32.415Z,2.20
2023-05-02T03:37:36.267Z,2.13
2023-05-02T03:38:39.594Z,2.10
2023-05-02T03:39:47.335Z,2.50
2023-05-02T03:40:50.674Z,2.05
2023-05-02T03:41:54.564Z,2.13
2023-05-02T03:43:00.749Z,2.10
2023-05-02T03:44:08.207Z,2.20
2023-05-02T03:45:12.170Z,2.20
2023-05-02T03:46:16.001Z,2.22
2023-05-02T03:47:21.410Z,1.90
2023-05-02T03:48:25.734Z,1.90
2023-05-02T03:49:28.941Z,2.45
2023-05-02T03:50:33.291Z,1.85
2023-05-02T03:51:37.020Z,1.90
2023-05-02T03:52:40.655Z,2.20
2023-05-02T03:53:44.978Z,2.25
2023-05-02T03:54:48.568Z,2.13
2023-05-02T03:55:52.912Z,2.28
2023-05-02T03:57:05.498Z,1.77
2023-05-02T03:58:11.496Z,2.22
2023-05-02T03:59:16.025Z,2.80
2023-05-02T04:00:20.415Z,2.25
2023-05-02T04:01:32.157Z,2.75
2023-05-02T04:02:38.036Z,2.40
2023-05-02T04:03:45.032Z,2.38
2023-05-02T04:04:50.633Z,2.58
2023-05-02T04:05:56.748Z,2.40
2023-05-02T04:07:00.435Z,2.03
2023-05-02T04:08:05.291Z,2.17
2023-05-02T04:09:09.684Z,2.60
2023-05-02T04:10:19.697Z,2.67
2023-05-02T04:11:34.134Z,1.88
2023-05-02T04:12:39.577Z,2.67
2023-05-02T04:13:43.362Z,2.30
2023-05-02T04:14:46.979Z,2.70
2023-05-02T04:15:51.184Z,2.03
2023-05-02T04:16:58.515Z,2.65
2023-05-02T04:18:16.090Z,2.35
2023-05-02T04:19:20.054Z,2.67
2023-05-02T04:20:23.708Z,2.35
2023-05-02T04:21:29.451Z,2.50
2023-05-02T04:22:34.135Z,2.78
2023-05-02T04:23:41.504Z,2.28
2023-05-02T04:24:46.120Z,2.50
2023-05-02T04:25:54.493Z,2.55
2023-05-02T04:27:01.619Z,2.97
2023-05-02T04:28:05.963Z,2.47
2023-05-02T04:29:09.982Z,2.85
2023-05-02T04:30:14.009Z,2.83
2023-05-02T04:31:21.787Z,3.20
2023-05-02T04:32:25.906Z,3.50
2023-05-02T04:33:30.168Z,3.08
2023-05-02T04:34:34.262Z,3.33
2023-05-02T04:35:38.044Z,2.90
2023-05-02T04:36:42.222Z,3.05
2023-05-02T04:37:49.464Z,2.88
2023-05-02T04:38:54.650Z,2.95
2023-05-02T04:39:59.227Z,3.67
2023-05-02T04:41:08.940Z,3.28
2023-05-02T04:42:18.138Z,3.53
2023-05-02T04:43:51.325Z,3.08
2023-05-02T04:44:55.109Z,3.13
2023-05-02T04:45:59.750Z,3.33
2023-05-02T04:47:10.319Z,2.83
2023-05-02T04:48:15.012Z,3.42
2023-05-02T04:49:18.698Z,2.15
2023-05-02T04:50:22.493Z,2.58
2023-05-02T04:51:26.203Z,2.63
2023-05-02T04:52:29.741Z,2.60
2023-05-02T04:53:33.442Z,2.72
2023-05-02T04:54:37.172Z,2.63
2023-05-02T04:55:41.338Z,2.88
2023-05-02T04:56:45.015Z,3.00
2023-05-02T04:57:49.217Z,2.95
2023-05-02T04:58:53.571Z,2.90
2023-05-02T04:59:57.331Z,2.90
2023-05-02T05:01:01.008Z,3.08
2023-05-02T05:02:05.494Z,3.83
2023-05-02T05:03:09.593Z,3.10
2023-05-02T05:04:14.097Z,2.20
2023-05-02T05:05:18.152Z,2.85
2023-05-02T05:06:22.228Z,2.80
2023-05-02T05:07:26.314Z,3.20
2023-05-02T05:08:31.341Z,3.00
2023-05-02T05:09:35.798Z,2.40
2023-05-02T05:10:41.482Z,2.83
2023-05-02T05:11:47.257Z,2.70
2023-05-02T05:12:52.009Z,2.10
2023-05-02T05:13:58.115Z,2.72
2023-05-02T05:15:03.169Z,2.88
2023-05-02T05:16:08.156Z,3.20
2023-05-02T05:17:12.256Z,3.40
2023-05-02T05:18:15.786Z,3.53
2023-05-02T05:19:19.696Z,3.40
2023-05-02T05:20:22.979Z,3.13
2023-05-02T05:21:29.081Z,3.40
2023-05-02T05:22:44.868Z,3.15
2023-05-02T05:23:49.781Z,3.30
2023-05-02T05:24:59.719Z,3.35
2023-05-02T05:26:13.956Z,3.38
2023-05-02T05:27:20.337Z,2.92
2023-05-02T05:28:23.767Z,3.40
2023-05-02T05:29:27.133Z,3.33
2023-05-02T05:30:32.052Z,2.95
2023-05-02T05:31:37.895Z,3.15
2023-05-02T05:32:42.272Z,3.20
2023-05-02T05:33:45.791Z,3.22
2023-05-02T05:34:54.010Z,3.10
2023-05-02T05:36:11.686Z,2.75
2023-05-02T05:37:15.496Z,3.33
2023-05-02T05:38:18.930Z,3.88
2023-05-02T05:39:23.845Z,3.00
2023-05-02T05:40:30.372Z,3.67
2023-05-02T05:41:35.696Z,3.20
2023-05-02T05:42:43.340Z,3.20
2023-05-02T05:43:53.428Z,3.53
2023-05-02T05:44:56.995Z,3.40
2023-05-02T05:46:00.633Z,2.78
2023-05-02T05:47:05.643Z,2.90
2023-05-02T05:48:09.001Z,2.67
2023-05-02T05:49:19.758Z,2.92
2023-05-02T05:50:24.165Z,2.40
2023-05-02T05:51:28.814Z,2.90
2023-05-02T05:52:35.648Z,2.58
2023-05-02T05:53:40.058Z,3.13
2023-05-02T05:54:46.022Z,3.33
2023-05-02T05:55:50.546Z,3.35
2023-05-02T05:56:55.297Z,3.75
2023-05-02T05:57:58.403Z,3.17
2023-05-02T05:59:02.209Z,3.28
2023-05-02T06:00:08.008Z,3.00
2023-05-02T06:01:32.133Z,2.75
2023-05-02T06:02:36.268Z,2.80
2023-05-02T06:03:40.298Z,3.30
2023-05-02T06:04:44.161Z,3.50
2023-05-02T06:05:48.076Z,2.90
2023-05-02T06:06:52.183Z,2.70
2023-05-02T06:07:56.106Z,2.90
2023-05-02T06:09:00.098Z,2.70
2023-05-02T06:10:03.673Z,2.80
2023-05-02T06:11:12.054Z,2.80
2023-05-02T06:12:17.371Z,2.83
2023-05-02T06:13:22.671Z,3.55
2023-05-02T06:14:27.482Z,3.22
2023-05-02T06:15:30.911Z,3.45
2023-05-02T06:16:35.054Z,3.45
2023-05-02T06:17:39.144Z,3.97
2023-05-02T06:18:42.874Z,3.17
2023-05-02T06:19:46.062Z,3.40
2023-05-02T06:20:49.690Z,3.38
2023-05-02T06:21:53.332Z,3.53
2023-05-02T06:22:56.901Z,4.00
2023-05-02T06:24:00.362Z,3.53
2023-05-02T06:25:05.848Z,4.40
2023-05-02T06:26:11.098Z,4.55
2023-05-02T06:27:14.704Z,6.45
2023-05-02T06:28:18.596Z,6.65
2023-05-02T06:29:22.764Z,7.03
2023-05-02T06:30:27.343Z,7.13
2023-05-02T06:31:30.402Z,6.43
2023-05-02T06:32:34.209Z,4.80
2023-05-02T06:33:37.709Z,4.57
2023-05-02T06:34:41.062Z,4.68
2023-05-02T06:35:45.040Z,4.88
2023-05-02T06:36:48.485Z,4.07
2023-05-02T06:37:51.985Z,3.83
2023-05-02T06:38:55.288Z,4.45
2023-05-02T06:39:59.207Z,3.83
2023-05-02T06:41:03.335Z,3.65
2023-05-02T06:42:06.992Z,3.63
2023-05-02T06:43:15.052Z,3.60
2023-05-02T06:44:18.544Z,3.78
2023-05-02T06:45:22.241Z,3.35
2023-05-02T06:46:29.039Z,2.88
2023-05-02T06:47:33.404Z,3.35
2023-05-02T06:48:37.554Z,3.60
2023-05-02T06:49:40.804Z,3.13
2023-05-02T06:50:44.415Z,3.42
2023-05-02T06:51:47.927Z,2.83
2023-05-02T06:52:50.895Z,3.47
2023-05-02T06:53:54.415Z,3.30
2023-05-02T06:54:58.623Z,3.28
2023-05-02T06:56:02.078Z,3.35
2023-05-02T06:57:05.790Z,3.20
2023-05-02T06:58:09.258Z,3.95
2023-05-02T06:59:13.013Z,3.20
2023-05-02T07:00:18.142Z,3.33
2023-05-02T07:01:21.736Z,4.30
2023-05-02T07:02:25.011Z,3.42
2023-05-02T07:03:28.707Z,3.70
2023-05-02T07:04:31.990Z,3.10
2023-05-02T07:05:35.444Z,4.55
2023-05-02T07:06:39.112Z,6.00
2023-05-02T07:07:43.441Z,6.50
2023-05-02T07:08:47.050Z,5.57
2023-05-02T07:09:51.056Z,4.38
2023-05-02T07:10:55.002Z,3.95
2023-05-02T07:11:58.874Z,3.53
2023-05-02T07:13:02.432Z,3.38
2023-05-02T07:14:05.995Z,3.80
2023-05-02T07:15:09.651Z,3.58
2023-05-02T07:16:13.189Z,4.68
2023-05-02T07:17:16.879Z,3.72
2023-05-02T07:18:20.707Z,3.67
2023-05-02T07:19:24.156Z,3.83
2023-05-02T07:20:28.013Z,3.60
2023-05-02T07:21:33.394Z,4.20
2023-05-02T07:22:36.559Z,3.55
2023-05-02T07:23:40.419Z,3.40
2023-05-02T07:24:44.041Z,4.03
2023-05-02T07:25:48.815Z,3.53
2023-05-02T07:26:52.888Z,3.97
2023-05-02T07:27:56.433Z,3.85
2023-05-02T07:29:00.504Z,4.07
2023-05-02T07:30:04.735Z,3.58
2023-05-02T07:31:08.450Z,3.30
2023-05-02T07:32:12.467Z,4.18
2023-05-02T07:33:16.152Z,4.05
2023-05-02T07:34:19.472Z,4.47
2023-05-02T07:35:23.144Z,3.83
2023-05-02T07:36:26.898Z,4.75
2023-05-02T07:37:35.456Z,4.50
2023-05-02T07:38:38.959Z,4.88
2023-05-02T07:39:42.422Z,5.32
2023-05-02T07:40:47.735Z,4.78
2023-05-02T07:41:53.757Z,4.85
2023-05-02T07:42:57.940Z,5.43
2023-05-02T07:44:01.852Z,5.95
2023-05-02T07:45:05.594Z,5.30
2023-05-02T07:46:09.741Z,4.50
2023-05-02T07:47:13.502Z,4.55
2023-05-02T07:48:16.728Z,4.50
2023-05-02T07:49:20.956Z,4.13
2023-05-02T07:50:24.891Z,4.40
2023-05-02T07:51:29.148Z,4.07
2023-05-02T07:52:33.338Z,3.70
2023-05-02T07:53:37.533Z,4.40
2023-05-02T07:54:41.136Z,4.05
2023-05-02T07:55:44.416Z,3.70
2023-05-02T07:56:48.421Z,3.13
2023-05-02T07:57:52.040Z,4.15
2023-05-02T07:58:56.160Z,3.40
2023-05-02T08:00:00.606Z,3.75
2023-05-02T08:01:04.581Z,3.75
2023-05-02T08:02:08.594Z,3.15
2023-05-02T08:03:12.422Z,3.63
2023-05-02T08:04:17.007Z,3.53
2023-05-02T08:05:20.872Z,3.63
2023-05-02T08:06:24.398Z,3.72
2023-05-02T08:07:28.331Z,4.00
2023-05-02T08:08:31.808Z,3.42
2023-05-02T08:09:35.625Z,3.17
2023-05-02T08:10:38.932Z,3.40
2023-05-02T08:11:42.859Z,3.05
2023-05-02T08:12:46.415Z,3.00
2023-05-02T08:13:50.425Z,3.05
2023-05-02T08:14:54.252Z,3.10
2023-05-02T08:15:59.345Z,2.88
2023-05-02T08:17:03.030Z,2.85
2023-05-02T08:18:06.688Z,2.80
2023-05-02T08:19:10.688Z,3.00
2023-05-02T08:20:14.360Z,2.75
2023-05-02T08:21:17.965Z,2.92
2023-05-02T08:22:22.342Z,3.17
2023-05-02T08:23:26.394Z,2.72
2023-05-02T08:24:30.006Z,3.03
2023-05-02T08:25:33.527Z,2.55
2023-05-02T08:26:37.582Z,2.72
2023-05-02T08:27:41.696Z,2.72
2023-05-02T08:28:45.508Z,2.40
2023-05-02T08:29:49.160Z,2.45
2023-05-02T08:30:52.988Z,2.42
2023-05-02T08:31:56.297Z,2.67
2023-05-02T08:32:59.698Z,2.72
2023-05-02T08:34:03.182Z,2.40
2023-05-02T08:35:07.415Z,2.20
2023-05-02T08:36:18.530Z,2.10
2023-05-02T08:37:22.168Z,2.00
2023-05-02T08:38:26.014Z,2.45
2023-05-02T08:39:29.821Z,2.35
2023-05-02T08:40:42.201Z,2.20
2023-05-02T08:41:47.254Z,2.55
2023-05-02T08:42:50.602Z,2.58
2023-05-02T08:43:54.189Z,2.25
2023-05-02T08:44:59.024Z,2.40
2023-05-02T08:46:02.567Z,2.13
2023-05-02T08:47:07.268Z,2.30
2023-05-02T08:48:12.911Z,2.30
2023-05-02T08:49:16.632Z,2.03
2023-05-02T08:50:20.836Z,2.10
2023-05-02T08:51:24.392Z,1.95
2023-05-02T08:52:28.354Z,2.03
2023-05-02T08:53:36.161Z,2.28
2023-05-02T08:54:39.605Z,2.20
2023-05-02T08:55:44.749Z,2.10
2023-05-02T08:56:48.653Z,1.67
2023-05-02T08:57:52.582Z,1.85
2023-05-02T08:58:56.408Z,2.10
2023-05-02T09:00:00.236Z,2.05
2023-05-02T09:01:06.272Z,2.08
2023-05-02T09:02:18.943Z,2.00
2023-05-02T09:03:25.006Z,1.95
2023-05-02T09:04:32.474Z,2.22
2023-05-02T09:05:41.533Z,1.65
2023-05-02T09:06:45.882Z,1.90
2023-05-02T09:07:50.350Z,1.92
2023-05-02T09:08:54.455Z,1.63
2023-05-02T09:09:58.117Z,2.40
2023-05-02T09:11:06.402Z,2.30
2023-05-02T09:12:10.786Z,2.17
2023-05-02T09:13:45.195Z,1.90
2023-05-02T09:14:48.361Z,1.60
2023-05-02T09:16:17.785Z,2.28
2023-05-02T09:17:22.797Z,2.20
2023-05-02T09:18:29.018Z,1.90
2023-05-02T09:19:32.710Z,2.30
2023-05-02T09:20:41.556Z,2.00
2023-05-02T09:21:45.027Z,1.98
2023-05-02T09:22:52.900Z,2.10
2023-05-02T09:23:57.988Z,1.65
2023-05-02T09:25:02.512Z,2.00
2023-05-02T09:26:17.211Z,1.88
2023-05-02T09:27:20.930Z,2.10
2023-05-02T09:28:40.154Z,1.98
2023-05-02T09:29:47.324Z,2.25
2023-05-02T09:30:50.578Z,1.83
2023-05-02T09:31:56.607Z,1.83
2023-05-02T09:33:00.685Z,2.05
2023-05-02T09:34:17.655Z,2.13
2023-05-02T09:35:25.273Z,2.25
2023-05-02T09:36:28.684Z,1.88
2023-05-02T09:37:38.262Z,1.88
2023-05-02T09:38:42.436Z,1.70
2023-05-02T09:40:05.811Z,1.90
2023-05-02T09:41:08.964Z,2.10
2023-05-02T09:42:12.640Z,1.70
2023-05-02T09:43:18.049Z,1.80
2023-05-02T09:44:23.537Z,2.00
2023-05-02T09:45:27.693Z,1.65
2023-05-02T09:46:31.708Z,1.90
2023-05-02T09:47:35.241Z,1.50
2023-05-02T09:48:55.015Z,1.70
2023-05-02T09:49:58.318Z,1.70
2023-05-02T09:51:02.195Z,1.70
2023-05-02T09:52:14.492Z,1.58
2023-05-02T09:53:18.413Z,1.98
2023-05-02T09:54:37.575Z,1.70
2023-05-02T09:55:41.550Z,1.50
2023-05-02T09:56:57.865Z,1.73
2023-05-02T09:58:02.086Z,1.63
2023-05-02T09:59:23.670Z,1.90
2023-05-02T10:00:40.921Z,1.73
2023-05-02T10:01:44.741Z,2.00
2023-05-02T10:02:51.365Z,1.83
2023-05-02T10:03:55.150Z,1.88
2023-05-02T10:04:59.554Z,1.92
2023-05-02T10:06:03.634Z,1.90
2023-05-02T10:07:07.676Z,1.70
2023-05-02T10:08:11.507Z,1.63
2023-05-02T10:09:18.860Z,1.88
2023-05-02T10:10:25.077Z,1.90
2023-05-02T10:11:28.548Z,1.63
2023-05-02T10:12:32.320Z,1.83
2023-05-02T10:13:36.097Z,1.50
2023-05-02T10:14:43.179Z,1.30
2023-05-02T10:15:46.820Z,2.15
2023-05-02T10:17:07.698Z,1.90
2023-05-02T10:18:17.195Z,1.67
2023-05-02T10:19:24.959Z,1.67
2023-05-02T10:20:38.120Z,1.70
2023-05-02T10:21:42.281Z,2.25
2023-05-02T10:22:46.748Z,1.83
2023-05-02T10:23:50.415Z,1.90
2023-05-02T10:24:54.751Z,2.00
2023-05-02T10:26:01.260Z,1.98
2023-05-02T10:27:06.569Z,1.90
2023-05-02T10:28:11.125Z,1.88
2023-05-02T10:29:14.476Z,1.63
2023-05-02T10:30:18.496Z,1.70
2023-05-02T10:31:22.486Z,1.65
2023-05-02T10:32:28.176Z,1.67
2023-05-02T10:33:32.532Z,1.80
2023-05-02T10:34:36.351Z,1.70
2023-05-02T10:35:39.535Z,1.60
2023-05-02T10:36:43.314Z,1.88
2023-05-02T10:37:47.430Z,2.38
2023-05-02T10:38:51.420Z,1.90
2023-05-02T10:39:55.680Z,1.60
2023-05-02T10:41:05.068Z,1.60
2023-05-02T10:42:08.753Z,2.20
2023-05-02T10:43:16.315Z,1.75
2023-05-02T10:44:19.892Z,1.80
2023-05-02T10:45:37.340Z,1.75
2023-05-02T10:46:44.101Z,1.52
2023-05-02T10:47:47.835Z,1.75
2023-05-02T10:49:10.762Z,1.90
2023-05-02T10:50:14.254Z,1.75
2023-05-02T10:51:22.192Z,1.50
2023-05-02T10:52:38.869Z,2.10
2023-05-02T10:53:44.777Z,1.65
2023-05-02T10:54:49.005Z,1.83
2023-05-02T10:56:14.830Z,1.83
2023-05-02T10:57:18.004Z,1.60
2023-05-02T10:58:22.098Z,1.63
2023-05-02T10:59:39.053Z,1.50
2023-05-02T11:00:43.068Z,1.90
2023-05-02T11:01:46.959Z,1.85
2023-05-02T11:02:51.266Z,1.83
2023-05-02T11:04:11.964Z,1.83
2023-05-02T11:05:15.560Z,1.42
2023-05-02T11:06:19.564Z,1.58
2023-05-02T11:07:24.160Z,1.75
2023-05-02T11:08:28.016Z,1.60
2023-05-02T11:09:33.607Z,1.60
2023-05-02T11:10:36.918Z,1.75
2023-05-02T11:11:44.786Z,1.50
2023-05-02T11:12:54.623Z,1.70
2023-05-02T11:13:57.978Z,1.60
2023-05-02T11:15:01.879Z,1.63
2023-05-02T11:16:06.238Z,1.85
2023-05-02T11:17:10.478Z,1.40
2023-05-02T11:18:15.037Z,1.73
2023-05-02T11:19:18.507Z,1.30
2023-05-02T11:20:22.574Z,1.40
2023-05-02T11:21:29.901Z,1.55
2023-05-02T11:22:40.004Z,1.75
2023-05-02T11:23:44.727Z,1.63
2023-05-02T11:24:51.504Z,1.75
2023-05-02T11:25:59.023Z,1.65
2023-05-02T11:27:30.391Z,1.75
2023-05-02T11:28:49.100Z,1.73
2023-05-02T11:29:53.490Z,1.58
2023-05-02T11:30:57.982Z,1.70
2023-05-02T11:32:01.877Z,1.42
2023-05-02T11:33:05.392Z,1.60
2023-05-02T11:34:08.650Z,1.40
2023-05-02T11:35:22.461Z,1.67
2023-05-02T11:36:35.172Z,1.30
2023-05-02T11:37:39.501Z,1.65
2023-05-02T11:38:43.635Z,1.30
2023-05-02T11:39:52.053Z,1.52
2023-05-02T11:41:03.614Z,1.70
2023-05-02T11:42:07.271Z,2.08
2023-05-02T11:43:17.423Z,2.00
2023-05-02T11:44:21.998Z,1.63
2023-05-02T11:45:37.972Z,1.52
2023-05-02T11:46:42.296Z,1.88
2023-05-02T11:47:49.409Z,1.40
2023-05-02T11:48:53.371Z,1.73
2023-05-02T11:49:57.155Z,1.48
2023-05-02T11:51:06.189Z,1.20
2023-05-02T11:52:10.395Z,1.70
2023-05-02T11:53:18.892Z,1.50
2023-05-02T11:54:22.654Z,1.45
2023-05-02T11:55:26.088Z,1.50
2023-05-02T11:56:29.710Z,1.50
2023-05-02T11:57:37.036Z,1.55
2023-05-02T11:58:41.013Z,1.67
2023-05-02T12:00:12.005Z,1.55
2023-05-02T12:01:16.435Z,1.35
2023-05-02T12:02:20.433Z,1.23
2023-05-02T12:03:30.485Z,1.50
2023-05-02T12:04:38.595Z,1.52
2023-05-02T12:05:41.996Z,1.10
2023-05-02T12:07:00.936Z,1.30
2023-05-02T12:08:04.782Z,1.20
2023-05-02T12:09:17.775Z,1.00
2023-05-02T12:10:21.528Z,1.33
2023-05-02T12:11:25.451Z,1.15
2023-05-02T12:12:29.239Z,1.10
2023-05-02T12:13:33.024Z,1.48
2023-05-02T12:14:38.567Z,1.20
2023-05-02T12:15:42.959Z,1.45
2023-05-02T12:16:46.752Z,1.40
2023-05-02T12:17:53.250Z,1.05
2023-05-02T12:19:00.272Z,1.17
2023-05-02T12:20:10.341Z,1.60
2023-05-02T12:22:18.062Z,1.58
2023-05-02T12:23:22.177Z,1.52
2023-05-02T12:24:26.077Z,1.40
2023-05-02T12:25:30.153Z,1.35
2023-05-02T12:26:34.637Z,1.17
2023-05-02T12:27:39.009Z,1.30
2023-05-02T12:28:52.728Z,1.30
2023-05-02T12:29:58.025Z,1.50
2023-05-02T12:31:01.309Z,1.40
2023-05-02T12:32:05.572Z,1.20
2023-05-02T12:33:08.887Z,1.25
2023-05-02T12:34:12.833Z,1.20
2023-05-02T12:35:23.474Z,1.35
2023-05-02T12:36:30.500Z,2.22
2023-05-02T12:37:33.979Z,2.45
2023-05-02T12:38:38.079Z,2.22
2023-05-02T12:39:43.432Z,2.10
2023-05-02T12:40:58.502Z,2.33
2023-05-02T12:42:02.067Z,2.22
2023-05-02T12:43:08.664Z,2.47
2023-05-02T12:44:11.841Z,2.50
2023-05-02T12:45:18.866Z,1.90
2023-05-02T12:46:22.603Z,2.45
2023-05-02T12:47:27.423Z,2.17
2023-05-02T12:48:31.399Z,2.47
2023-05-02T12:49:53.530Z,2.30
2023-05-02T12:50:57.053Z,2.47
2023-05-02T12:52:00.847Z,2.22
2023-05-02T12:53:04.627Z,2.58
2023-05-02T12:54:08.189Z,2.30
2023-05-02T12:55:19.167Z,2.17
2023-05-02T12:56:22.711Z,2.55
2023-05-02T12:57:26.304Z,3.03
2023-05-02T12:58:30.431Z,2.33
2023-05-02T12:59:34.175Z,2.20
2023-05-02T13:00:39.986Z,2.40
2023-05-02T13:01:43.776Z,2.35
2023-05-02T13:02:47.003Z,2.58
2023-05-02T13:03:51.962Z,2.65
2023-05-02T13:04:55.462Z,2.70
2023-05-02T13:05:59.101Z,3.72
2023-05-02T13:07:03.249Z,3.05
2023-05-02T13:08:06.843Z,2.40
2023-05-02T13:09:10.469Z,2.15
2023-05-02T13:10:14.320Z,2.60
2023-05-02T13:11:18.901Z,2.60
2023-05-02T13:12:22.791Z,2.13
2023-05-02T13:13:26.761Z,2.22
2023-05-02T13:14:30.167Z,2.42
2023-05-02T13:15:34.003Z,2.65
2023-05-02T13:16:38.407Z,1.90
2023-05-02T13:17:42.181Z,2.45
2023-05-02T13:18:47.217Z,2.00
2023-05-02T13:20:01.081Z,2.97
2023-05-02T13:21:06.955Z,2.50
2023-05-02T13:22:10.040Z,2.33
2023-05-02T13:23:13.356Z,2.58
2023-05-02T13:24:18.531Z,2.47
2023-05-02T13:25:22.352Z,2.50
2023-05-02T13:26:25.577Z,2.25
2023-05-02T13:27:29.346Z,2.60
2023-05-02T13:28:34.587Z,2.05
2023-05-02T13:29:38.503Z,2.30
2023-05-02T13:30:42.671Z,2.10
2023-05-02T13:31:46.488Z,2.55
2023-05-02T13:32:50.334Z,2.20
2023-05-02T13:33:53.949Z,2.10
2023-05-02T13:34:57.783Z,2.42
2023-05-02T13:36:01.011Z,1.85
2023-05-02T13:37:04.662Z,2.30
2023-05-02T13:38:08.480Z,2.00
2023-05-02T13:39:12.305Z,2.60
2023-05-02T13:40:16.537Z,1.95
2023-05-02T13:41:20.453Z,2.17
2023-05-02T13:42:23.595Z,2.55
2023-05-02T13:43:26.933Z,2.35
2023-05-02T13:44:31.844Z,1.90
2023-05-02T13:45:35.474Z,2.28
2023-05-02T13:46:39.590Z,2.30
2023-05-02T13:47:43.693Z,2.00
2023-05-02T13:48:47.065Z,2.83
2023-05-02T13:49:50.443Z,2.17
2023-05-02T13:50:54.251Z,1.80
2023-05-02T13:51:58.077Z,2.10
2023-05-02T13:53:02.121Z,2.05
2023-05-02T13:54:06.067Z,2.20
2023-05-02T13:55:10.305Z,1.88
2023-05-02T13:56:14.019Z,2.20
2023-05-02T13:57:17.821Z,1.75
2023-05-02T13:58:21.840Z,2.65
2023-05-02T13:59:25.198Z,2.00
2023-05-02T14:00:30.310Z,1.83
2023-05-02T14:01:34.331Z,2.28
2023-05-02T14:02:38.338Z,2.20
2023-05-02T14:03:42.200Z,2.10
2023-05-02T14:04:46.171Z,2.00
2023-05-02T14:05:49.437Z,2.40
2023-05-02T14:06:53.618Z,2.05
2023-05-02T14:07:57.514Z,2.20
2023-05-02T14:09:01.343Z,1.73
2023-05-02T14:10:05.487Z,2.05
2023-05-02T14:11:09.071Z,2.63
2023-05-02T14:12:12.451Z,1.92
2023-05-02T14:13:16.270Z,2.15
2023-05-02T14:14:20.531Z,2.13
2023-05-02T14:15:24.479Z,2.00
2023-05-02T14:16:28.113Z,1.98
2023-05-02T14:17:32.336Z,2.42
2023-05-02T14:18:36.140Z,2.05
2023-05-02T14:19:40.104Z,1.70
2023-05-02T14:20:44.612Z,2.50
2023-05-02T14:21:48.332Z,2.00
2023-05-02T14:22:51.740Z,2.17
2023-05-02T14:23:55.604Z,2.08
2023-05-02T14:24:58.871Z,2.53
2023-05-02T14:26:03.038Z,2.38
2023-05-02T14:27:08.393Z,2.00
2023-05-02T14:28:11.922Z,2.42
2023-05-02T14:29:15.797Z,2.15
2023-05-02T14:30:19.769Z,2.47
2023-05-02T14:31:22.918Z,2.13
2023-05-02T14:32:26.930Z,2.30
2023-05-02T14:33:30.836Z,2.03
2023-05-02T14:34:35.006Z,3.33
2023-05-02T14:35:38.965Z,2.17
2023-05-02T14:36:42.295Z,2.30
2023-05-02T14:37:46.650Z,2.60
2023-05-02T14:38:50.782Z,1.98
2023-05-02T14:39:57.322Z,2.00
2023-05-02T14:41:03.875Z,2.47